createdAt,value
2022-12-23T00:00:28.895Z,92.61
2022-12-23T00:02:55.888Z,92.72
2022-12-23T00:05:22.832Z,92.80
2022-12-23T00:07:49.591Z,92.59
2022-12-23T00:10:16.410Z,92.58
2022-12-23T00:13:02.053Z,92.82
2022-12-23T00:15:28.866Z,92.40
2022-12-23T00:17:55.546Z,92.84
2022-12-23T00:20:22.348Z,92.94
2022-12-23T00:23:07.370Z,93.03
2022-12-23T00:25:42.115Z,93.04
2022-12-23T00:28:17.666Z,92.95
2022-12-23T00:30:52.415Z,92.77
2022-12-23T00:33:25.229Z,92.87
2022-12-23T00:35:53.127Z,92.74
2022-12-23T00:38:39.631Z,92.58
2022-12-23T00:41:29.211Z,92.94
2022-12-23T00:43:56.655Z,92.80
2022-12-23T00:46:23.432Z,92.93
2022-12-23T00:49:08.795Z,92.89
2022-12-23T00:51:35.859Z,92.69
2022-12-23T00:54:03.569Z,92.47
2022-12-23T00:56:30.411Z,91.85
2022-12-23T00:58:57.208Z,92.18
2022-12-23T01:01:42.778Z,92.56
2022-12-23T01:04:31.700Z,92.67
2022-12-23T01:06:58.593Z,91.95
2022-12-23T01:09:25.629Z,92.16
2022-12-23T01:11:52.644Z,92.26
2022-12-23T01:14:19.789Z,92.16
2022-12-23T01:16:47.141Z,91.94
2022-12-23T01:19:14.474Z,91.35
2022-12-23T01:21:41.135Z,91.38
2022-12-23T01:24:08.840Z,91.75
2022-12-23T01:26:35.769Z,91.37
2022-12-23T01:29:03.062Z,91.78
2022-12-23T01:31:30.345Z,90.92
2022-12-23T01:33:57.064Z,91.32
2022-12-23T01:36:24.274Z,91.49
2022-12-23T01:38:51.167Z,91.38
2022-12-23T01:41:44.589Z,91.66
2022-12-23T01:44:49.030Z,91.73
2022-12-23T01:47:31.701Z,91.86
2022-12-23T01:50:23.404Z,92.05
2022-12-23T01:53:03.086Z,91.52
2022-12-23T01:55:57.132Z,92.04
2022-12-23T01:58:40.664Z,91.85
2022-12-23T02:01:28.294Z,91.64
2022-12-23T02:03:58.796Z,91.66
2022-12-23T02:06:46.316Z,91.63
2022-12-23T02:09:22.407Z,91.17
2022-12-23T02:12:25.856Z,91.63
2022-12-23T02:15:29.287Z,91.72
2022-12-23T02:18:17.412Z,91.59
2022-12-23T02:20:56.126Z,91.49
2022-12-23T02:23:44.529Z,91.36
2022-12-23T02:26:46.318Z,91.55
2022-12-23T02:29:32.203Z,91.63
2022-12-23T02:32:15.935Z,91.25
2022-12-23T02:35:13.757Z,91.28
2022-12-23T02:37:52.383Z,91.84
2022-12-23T02:40:31.551Z,91.66
2022-12-23T02:43:31.441Z,91.64
2022-12-23T02:46:22.634Z,91.61
2022-12-23T02:49:05.026Z,91.80
2022-12-23T02:51:37.693Z,91.55
2022-12-23T02:54:09.333Z,91.87
2022-12-23T02:56:39.619Z,91.28
2022-12-23T02:59:20.618Z,91.68
2022-12-23T03:01:49.648Z,91.44
2022-12-23T03:04:16.612Z,91.74
2022-12-23T03:06:49.700Z,91.90
2022-12-23T03:09:38.255Z,91.83
2022-12-23T03:12:16.507Z,92.13
2022-12-23T03:14:55.883Z,92.46
2022-12-23T03:17:54.949Z,92.32
2022-12-23T03:21:02.431Z,92.20
2022-12-23T03:23:35.923Z,92.36
2022-12-23T03:26:11.660Z,92.69
2022-12-23T03:29:24.088Z,92.67
2022-12-23T03:31:53.069Z,92.68
2022-12-23T03:34:26.443Z,92.52
2022-12-23T03:36:57.692Z,92.74
2022-12-23T03:39:32.129Z,92.73
2022-12-23T03:42:06.140Z,92.40
2022-12-23T03:44:37.394Z,93.05
2022-12-23T03:47:45.317Z,92.56
2022-12-23T03:50:15.686Z,93.00
2022-12-23T03:52:55.226Z,92.70
2022-12-23T03:55:36.171Z,93.03
2022-12-23T03:58:19.764Z,93.31
2022-12-23T04:01:11.681Z,93.36
2022-12-23T04:04:05.936Z,93.18
2022-12-23T04:06:41.018Z,93.07
2022-12-23T04:09:08.465Z,93.45
2022-12-23T04:11:36.704Z,93.56
2022-12-23T04:14:03.621Z,93.39
2022-12-23T04:16:30.636Z,93.70
2022-12-23T04:18:57.503Z,93.28
2022-12-23T04:21:24.367Z,93.53
2022-12-23T04:23:51.435Z,93.43
2022-12-23T04:26:18.313Z,93.36
2022-12-23T04:28:45.103Z,93.52
2022-12-23T04:31:11.875Z,93.52
2022-12-23T04:33:38.780Z,93.29
2022-12-23T04:36:05.954Z,93.10
2022-12-23T04:38:32.622Z,93.33
2022-12-23T04:40:59.418Z,93.34
2022-12-23T04:43:26.210Z,93.00
2022-12-23T04:45:53.133Z,93.11
2022-12-23T04:48:19.979Z,93.57
2022-12-23T04:50:47.518Z,93.26
2022-12-23T04:53:14.844Z,93.16
2022-12-23T04:55:41.979Z,92.98
2022-12-23T04:58:08.733Z,93.00
2022-12-23T05:00:39.792Z,93.34
2022-12-23T05:03:07.484Z,93.38
2022-12-23T05:05:34.599Z,93.27
2022-12-23T05:08:06.640Z,93.24
2022-12-23T05:10:33.424Z,93.18
2022-12-23T05:13:00.666Z,93.12
2022-12-23T05:15:27.405Z,93.33
2022-12-23T05:17:54.145Z,93.37
2022-12-23T05:20:21.032Z,93.14
2022-12-23T05:22:47.899Z,93.14
2022-12-23T05:25:14.693Z,93.27
2022-12-23T05:27:41.480Z,93.25
2022-12-23T05:30:08.953Z,93.52
2022-12-23T05:32:36.015Z,92.96
2022-12-23T05:35:02.844Z,93.11
2022-12-23T05:37:29.829Z,93.30
2022-12-23T05:39:56.761Z,93.22
2022-12-23T05:42:23.631Z,93.35
2022-12-23T05:44:50.323Z,92.87
2022-12-23T05:47:17.191Z,93.30
2022-12-23T05:49:44.100Z,93.58
2022-12-23T05:52:10.864Z,94.09
2022-12-23T05:54:37.741Z,93.32
2022-12-23T05:57:04.473Z,93.05
2022-12-23T05:59:31.900Z,93.42
2022-12-23T06:01:59.167Z,93.06
2022-12-23T06:04:26.415Z,93.29
2022-12-23T06:06:53.236Z,93.23
2022-12-23T06:09:20.153Z,93.06
2022-12-23T06:11:46.984Z,93.21
2022-12-23T06:14:13.734Z,93.07
2022-12-23T06:16:40.609Z,93.20
2022-12-23T06:19:07.748Z,93.05
2022-12-23T06:21:34.637Z,93.07
2022-12-23T06:24:01.617Z,93.30
2022-12-23T06:26:28.509Z,92.89
2022-12-23T06:28:55.302Z,93.35
2022-12-23T06:31:22.270Z,92.71
2022-12-23T06:33:49.055Z,93.04
2022-12-23T06:36:15.908Z,93.11
2022-12-23T06:38:42.714Z,93.21
2022-12-23T06:41:09.605Z,93.00
2022-12-23T06:43:36.452Z,92.96
2022-12-23T06:46:03.348Z,93.03
2022-12-23T06:48:30.130Z,93.02
2022-12-23T06:50:56.916Z,92.93
2022-12-23T06:53:23.913Z,92.81
2022-12-23T06:55:50.819Z,92.78
2022-12-23T06:58:17.670Z,93.33
2022-12-23T07:00:44.491Z,93.25
2022-12-23T07:03:11.356Z,93.38
2022-12-23T07:05:42.410Z,93.22
2022-12-23T07:08:09.636Z,93.12
2022-12-23T07:10:39.079Z,93.67
2022-12-23T07:13:06.792Z,93.19
2022-12-23T07:15:33.528Z,93.40
2022-12-23T07:18:03.168Z,93.20
2022-12-23T07:20:29.905Z,93.20
2022-12-23T07:22:58.128Z,93.25
2022-12-23T07:25:25.336Z,92.92
2022-12-23T07:27:55.605Z,93.06
2022-12-23T07:30:23.398Z,93.58
2022-12-23T07:32:51.039Z,93.39
2022-12-23T07:35:18.386Z,93.71
2022-12-23T07:37:45.578Z,93.38
2022-12-23T07:40:12.625Z,93.47
2022-12-23T07:42:47.284Z,93.10
2022-12-23T07:45:14.469Z,93.05
2022-12-23T07:47:41.821Z,93.36
2022-12-23T07:50:09.211Z,93.05
2022-12-23T07:52:36.228Z,92.93
2022-12-23T07:55:03.212Z,92.82
2022-12-23T07:57:30.015Z,92.68
2022-12-23T07:59:57.262Z,92.60
2022-12-23T08:02:25.238Z,92.61
2022-12-23T08:04:52.203Z,92.45
2022-12-23T08:07:19.088Z,92.32
2022-12-23T08:09:45.832Z,92.46
2022-12-23T08:12:12.618Z,92.68
2022-12-23T08:14:39.476Z,92.07
2022-12-23T08:17:06.391Z,92.42
2022-12-23T08:19:33.292Z,92.69
2022-12-23T08:22:00.268Z,92.57
2022-12-23T08:24:27.109Z,92.01
2022-12-23T08:26:53.829Z,92.08
2022-12-23T08:29:20.974Z,91.58
2022-12-23T08:31:47.732Z,92.09
2022-12-23T08:34:14.548Z,92.10
2022-12-23T08:36:41.313Z,91.67
2022-12-23T08:39:10.836Z,91.91
2022-12-23T08:41:41.043Z,91.80
2022-12-23T08:44:08.275Z,92.13
2022-12-23T08:46:35.555Z,92.06
2022-12-23T08:49:02.923Z,91.84
2022-12-23T08:51:29.857Z,92.34
2022-12-23T08:54:00.891Z,92.72
2022-12-23T08:56:33.930Z,93.08
2022-12-23T08:59:01.199Z,92.73
2022-12-23T09:01:31.145Z,92.40
2022-12-23T09:03:58.534Z,92.80
2022-12-23T09:06:30.450Z,92.69
2022-12-23T09:08:58.803Z,92.67
2022-12-23T09:11:29.003Z,92.75
2022-12-23T09:13:56.922Z,92.43
2022-12-23T09:16:23.954Z,92.92
2022-12-23T09:18:50.816Z,92.18
2022-12-23T09:21:20.400Z,92.96
2022-12-23T09:23:48.115Z,92.69
2022-12-23T09:26:35.196Z,92.55
2022-12-23T09:29:02.028Z,92.79
2022-12-23T09:31:36.246Z,92.25
2022-12-23T09:34:04.363Z,92.50
2022-12-23T09:36:31.267Z,92.65
2022-12-23T09:38:58.772Z,92.13
2022-12-23T09:41:44.095Z,92.26
2022-12-23T09:44:43.203Z,92.08
2022-12-23T09:47:15.916Z,92.27
2022-12-23T09:49:54.106Z,92.30
2022-12-23T09:52:25.741Z,92.52
2022-12-23T09:54:55.495Z,92.30
2022-12-23T09:57:36.427Z,92.28
2022-12-23T10:00:23.871Z,92.09
2022-12-23T10:03:16.292Z,92.31
2022-12-23T10:06:02.211Z,92.12
2022-12-23T10:08:39.455Z,92.14
2022-12-23T10:11:06.289Z,92.49
2022-12-23T10:13:39.862Z,92.44
2022-12-23T10:16:35.722Z,92.21
2022-12-23T10:19:41.915Z,92.49
2022-12-23T10:22:15.845Z,92.30
2022-12-23T10:24:47.293Z,92.29
2022-12-23T10:27:16.876Z,92.21
2022-12-23T10:29:43.816Z,91.97
2022-12-23T10:32:25.840Z,92.10
2022-12-23T10:35:09.928Z,92.24
2022-12-23T10:37:57.442Z,92.43
2022-12-23T10:40:46.450Z,92.51
2022-12-23T10:43:22.330Z,92.54
2022-12-23T10:46:03.705Z,92.09
2022-12-23T10:49:01.045Z,92.33
2022-12-23T10:51:36.655Z,92.65
2022-12-23T10:54:11.490Z,93.04
2022-12-23T10:56:38.858Z,92.99
2022-12-23T10:59:06.816Z,92.84
2022-12-23T11:01:34.539Z,92.62
2022-12-23T11:04:17.347Z,92.63
2022-12-23T11:06:55.848Z,92.72
2022-12-23T11:09:46.721Z,92.90
2022-12-23T11:12:14.888Z,93.20
2022-12-23T11:14:52.541Z,92.79
2022-12-23T11:17:24.091Z,92.79
2022-12-23T11:20:18.865Z,92.29
2022-12-23T11:22:53.123Z,92.42
2022-12-23T11:25:33.539Z,92.69
2022-12-23T11:28:12.582Z,92.90
2022-12-23T11:30:55.450Z,92.63
2022-12-23T11:33:35.268Z,92.37
2022-12-23T11:36:13.802Z,92.36
2022-12-23T11:39:01.674Z,92.07
2022-12-23T11:41:37.426Z,92.38
2022-12-23T11:44:22.714Z,92.28
2022-12-23T11:46:50.541Z,93.14
2022-12-23T11:49:20.265Z,93.14
2022-12-23T11:52:05.595Z,92.55
2022-12-23T11:54:33.782Z,92.63
2022-12-23T11:57:03.766Z,92.45
2022-12-23T11:59:43.753Z,92.37
2022-12-23T12:02:19.954Z,93.06
2022-12-23T12:04:56.621Z,92.64
2022-12-23T12:07:24.040Z,92.47
2022-12-23T12:09:51.453Z,92.41
2022-12-23T12:12:21.149Z,92.50
2022-12-23T12:14:54.435Z,92.31
2022-12-23T12:17:27.710Z,92.50
2022-12-23T12:19:54.534Z,92.33
2022-12-23T12:22:32.486Z,92.66
2022-12-23T12:25:04.884Z,92.67
2022-12-23T12:27:39.904Z,92.60
2022-12-23T12:30:14.441Z,92.87
2022-12-23T12:33:01.081Z,92.88
2022-12-23T12:35:53.618Z,93.02
2022-12-23T12:38:36.139Z,92.78
2022-12-23T12:41:15.240Z,93.22
2022-12-23T12:44:26.926Z,93.65
2022-12-23T12:47:28.105Z,93.07
2022-12-23T12:50:03.030Z,93.57
2022-12-23T12:52:37.104Z,93.44
2022-12-23T12:55:29.495Z,92.69
2022-12-23T12:57:56.637Z,93.17
2022-12-23T13:00:24.969Z,93.26
2022-12-23T13:03:16.122Z,93.27
2022-12-23T13:06:08.829Z,93.58
2022-12-23T13:09:10.281Z,93.15
2022-12-23T13:11:46.132Z,94.07
2022-12-23T13:14:18.640Z,93.62
2022-12-23T13:17:23.811Z,93.60
2022-12-23T13:20:09.058Z,93.60
2022-12-23T13:22:38.463Z,93.29
2022-12-23T13:25:07.969Z,93.81
2022-12-23T13:27:38.163Z,93.42
2022-12-23T13:30:17.819Z,93.17
2022-12-23T13:33:05.303Z,93.68
2022-12-23T13:36:04.752Z,93.80
2022-12-23T13:38:35.094Z,94.06
2022-12-23T13:41:16.589Z,94.19
2022-12-23T13:43:47.620Z,94.35
2022-12-23T13:46:38.505Z,93.91
2022-12-23T13:49:36.458Z,93.83
2022-12-23T13:52:12.983Z,94.08
2022-12-23T13:55:13.961Z,94.20
2022-12-23T13:58:05.503Z,94.68
2022-12-23T14:00:34.507Z,94.63
2022-12-23T14:03:01.418Z,94.51
2022-12-23T14:05:38.978Z,94.60
2022-12-23T14:08:26.081Z,94.29
2022-12-23T14:11:00.015Z,94.59
2022-12-23T14:13:30.623Z,94.78
2022-12-23T14:16:16.367Z,94.50
2022-12-23T14:19:05.168Z,94.91
2022-12-23T14:21:53.459Z,94.47
2022-12-23T14:24:49.885Z,94.39
2022-12-23T14:27:36.570Z,94.26
2022-12-23T14:30:13.311Z,94.69
2022-12-23T14:32:50.646Z,94.76
2022-12-23T14:35:35.426Z,94.41
2022-12-23T14:38:16.049Z,94.58
2022-12-23T14:40:42.820Z,94.05
2022-12-23T14:43:33.530Z,94.10
2022-12-23T14:46:06.186Z,94.72
2022-12-23T14:48:36.096Z,94.61
2022-12-23T14:51:09.718Z,94.80
2022-12-23T14:53:59.450Z,94.69
2022-12-23T14:56:43.103Z,94.87
2022-12-23T14:59:23.809Z,94.67
2022-12-23T15:02:02.256Z,94.71
2022-12-23T15:04:54.188Z,94.72
2022-12-23T15:07:33.246Z,94.88
2022-12-23T15:10:07.204Z,94.62
2022-12-23T15:12:40.067Z,94.88
2022-12-23T15:15:22.371Z,94.83
2022-12-23T15:17:49.410Z,93.71
2022-12-23T15:20:20.724Z,94.49
2022-12-23T15:22:48.434Z,94.75
2022-12-23T15:25:28.902Z,94.35
2022-12-23T15:28:01.791Z,94.45
2022-12-23T15:30:48.514Z,94.28
2022-12-23T15:34:00.708Z,94.52
2022-12-23T15:36:10.504Z,94.97
2022-12-23T15:38:39.039Z,94.57
2022-12-23T15:41:15.377Z,94.33
2022-12-23T15:43:43.491Z,94.88
2022-12-23T15:46:28.739Z,94.93
2022-12-23T15:48:56.701Z,95.31
2022-12-23T15:54:31.685Z,94.72
2022-12-23T15:57:01.673Z,95.25
2022-12-23T15:59:35.052Z,95.01
2022-12-23T16:02:40.920Z,95.00
2022-12-23T16:05:05.130Z,95.14
2022-12-23T16:07:38.158Z,94.76
2022-12-23T16:10:15.044Z,94.91
2022-12-23T16:12:42.743Z,94.86
2022-12-23T16:15:38.812Z,95.13
2022-12-23T16:18:14.927Z,94.84
2022-12-23T16:20:45.620Z,94.89
2022-12-23T16:23:13.489Z,94.99
2022-12-23T16:25:50.175Z,95.11
2022-12-23T16:28:29.871Z,95.28
2022-12-23T16:30:58.411Z,95.46
2022-12-23T16:33:38.707Z,95.52
2022-12-23T16:36:16.881Z,94.96
2022-12-23T16:38:43.830Z,94.75
2022-12-23T16:41:10.694Z,94.94
2022-12-23T16:43:37.733Z,94.80
2022-12-23T16:46:05.743Z,94.79
2022-12-23T16:48:40.597Z,95.36
2022-12-23T16:51:13.068Z,94.95
2022-12-23T16:53:39.879Z,95.48
2022-12-23T16:56:14.357Z,95.37
2022-12-23T16:58:41.536Z,95.62
2022-12-23T17:01:16.667Z,95.54
2022-12-23T17:03:43.743Z,95.69
2022-12-23T17:06:14.681Z,95.42
2022-12-23T17:08:42.426Z,95.65
2022-12-23T17:11:19.613Z,95.75
2022-12-23T17:13:46.769Z,95.47
2022-12-23T17:16:15.794Z,95.69
2022-12-23T17:18:42.633Z,95.54
2022-12-23T17:21:19.985Z,95.53
2022-12-23T17:23:47.321Z,95.62
2022-12-23T17:26:14.168Z,95.74
2022-12-23T17:28:40.980Z,95.96
2022-12-23T17:31:14.186Z,95.73
2022-12-23T17:33:41.833Z,95.54
2022-12-23T17:36:11.102Z,96.02
2022-12-23T17:38:38.103Z,96.08
2022-12-23T17:41:05.042Z,95.53
2022-12-23T17:43:31.834Z,95.83
2022-12-23T17:45:58.698Z,95.89
2022-12-23T17:48:31.467Z,96.05
2022-12-23T17:50:58.909Z,95.69
2022-12-23T17:53:25.812Z,95.83
2022-12-23T17:55:52.443Z,95.93
2022-12-23T17:58:19.832Z,96.02
2022-12-23T18:00:46.745Z,95.86
2022-12-23T18:03:23.200Z,96.13
2022-12-23T18:05:57.279Z,95.74
2022-12-23T18:08:27.996Z,95.43
2022-12-23T18:10:54.926Z,95.92
2022-12-23T18:13:21.857Z,95.91
2022-12-23T18:15:49.771Z,95.97
2022-12-23T18:18:28.593Z,96.32
2022-12-23T18:21:00.484Z,96.34
2022-12-23T18:23:32.899Z,96.18
2022-12-23T18:26:00.390Z,95.97
2022-12-23T18:28:27.282Z,96.35
2022-12-23T18:30:57.684Z,96.22
2022-12-23T18:33:28.722Z,96.22
2022-12-23T18:35:56.253Z,96.18
2022-12-23T18:38:23.155Z,96.18
2022-12-23T18:40:53.890Z,96.10
2022-12-23T18:43:23.399Z,96.05
2022-12-23T18:45:53.553Z,95.88
2022-12-23T18:48:21.733Z,95.50
2022-12-23T18:50:49.076Z,95.54
2022-12-23T18:53:25.297Z,95.77
2022-12-23T18:55:53.845Z,95.79
2022-12-23T18:58:21.460Z,95.58
2022-12-23T19:00:49.924Z,95.44
2022-12-23T19:03:27.443Z,95.89
2022-12-23T19:05:56.039Z,96.05
2022-12-23T19:08:27.200Z,95.50
2022-12-23T19:10:55.862Z,95.77
2022-12-23T19:13:23.103Z,96.03
2022-12-23T19:15:50.875Z,96.24
2022-12-23T19:18:20.848Z,95.89
2022-12-23T19:20:49.022Z,96.31
2022-12-23T19:23:16.529Z,96.14
2022-12-23T19:25:52.595Z,96.48
2022-12-23T19:28:22.186Z,96.03
2022-12-23T19:30:49.991Z,96.52
2022-12-23T19:33:17.059Z,96.54
2022-12-23T19:35:44.570Z,96.33
2022-12-23T19:38:12.292Z,96.72
2022-12-23T19:40:40.202Z,96.42
2022-12-23T19:43:07.451Z,96.65
2022-12-23T19:45:34.186Z,96.34
2022-12-23T19:48:00.853Z,96.41
2022-12-23T19:50:27.909Z,96.12
2022-12-23T19:52:56.208Z,96.17
2022-12-23T19:55:24.022Z,96.35
2022-12-23T19:57:52.166Z,96.20
2022-12-23T20:00:19.335Z,96.58
2022-12-23T20:02:46.222Z,96.18
2022-12-23T20:05:13.077Z,96.30
2022-12-23T20:07:39.881Z,96.90
2022-12-23T20:10:07.467Z,96.01
2022-12-23T20:12:34.320Z,97.00
2022-12-23T20:15:01.248Z,96.84
2022-12-23T20:17:27.984Z,96.43
2022-12-23T20:19:54.752Z,96.52
2022-12-23T20:22:21.755Z,96.60
2022-12-23T20:24:48.607Z,96.54
2022-12-23T20:27:16.276Z,96.45
2022-12-23T20:29:43.861Z,96.27
2022-12-23T20:32:10.623Z,96.34
2022-12-23T20:34:39.985Z,96.15
2022-12-23T20:37:07.389Z,96.01
2022-12-23T20:39:34.599Z,95.73
2022-12-23T20:42:01.364Z,96.01
2022-12-23T20:44:36.967Z,95.87
2022-12-23T20:47:07.194Z,96.15
2022-12-23T20:49:34.214Z,95.93
2022-12-23T20:52:01.311Z,95.47
2022-12-23T20:54:33.253Z,95.74
2022-12-23T20:57:02.547Z,95.99
2022-12-23T20:59:29.352Z,95.62
2022-12-23T21:01:59.129Z,95.84
2022-12-23T21:04:26.640Z,96.03
2022-12-23T21:06:53.473Z,95.90
2022-12-23T21:09:20.446Z,95.45
2022-12-23T21:11:48.358Z,95.84
2022-12-23T21:14:15.803Z,95.71
2022-12-23T21:16:43.205Z,95.66
2022-12-23T21:19:15.777Z,95.42
2022-12-23T21:21:42.620Z,95.27
2022-12-23T21:24:10.872Z,95.03
2022-12-23T21:26:38.058Z,94.08
2022-12-23T21:29:07.381Z,94.17
2022-12-23T21:31:36.623Z,94.20
2022-12-23T21:34:04.023Z,94.17
2022-12-23T21:36:36.155Z,94.17
2022-12-23T21:39:04.224Z,94.04
2022-12-23T21:41:34.681Z,94.29
2022-12-23T21:44:01.453Z,93.79
2022-12-23T21:46:29.288Z,93.98
2022-12-23T21:48:57.602Z,93.82
2022-12-23T21:51:28.552Z,93.80
2022-12-23T21:53:58.935Z,94.07
2022-12-23T21:56:30.933Z,94.21
2022-12-23T21:58:59.789Z,93.54
2022-12-23T22:01:27.629Z,93.97
2022-12-23T22:03:55.686Z,94.03
2022-12-23T22:06:26.425Z,93.76
2022-12-23T22:08:53.950Z,93.98
2022-12-23T22:11:24.370Z,94.19
2022-12-23T22:13:52.118Z,93.86
2022-12-23T22:16:22.676Z,93.74
2022-12-23T22:18:50.778Z,93.70
2022-12-23T22:21:20.521Z,93.50
2022-12-23T22:23:48.568Z,93.21
2022-12-23T22:26:24.881Z,93.14
2022-12-23T22:28:55.269Z,93.13
2022-12-23T22:31:34.138Z,93.25
2022-12-23T22:34:01.362Z,92.72
2022-12-23T22:36:28.466Z,92.30
2022-12-23T22:38:57.813Z,92.60
2022-12-23T22:41:27.955Z,92.78
2022-12-23T22:43:55.803Z,92.54
2022-12-23T22:46:24.495Z,92.50
2022-12-23T22:48:52.483Z,92.52
2022-12-23T22:51:24.115Z,92.50
2022-12-23T22:53:50.972Z,92.27
2022-12-23T22:56:19.394Z,92.56
2022-12-23T22:58:46.287Z,92.61
2022-12-23T23:01:34.661Z,92.98
2022-12-23T23:04:03.391Z,93.01
2022-12-23T23:06:37.656Z,92.77
2022-12-23T23:09:07.033Z,92.90
2022-12-23T23:11:33.920Z,92.82
2022-12-23T23:14:00.920Z,92.51
2022-12-23T23:16:27.831Z,92.41
2022-12-23T23:18:55.169Z,91.72
2022-12-23T23:21:22.436Z,91.35
2022-12-23T23:23:49.787Z,91.68
2022-12-23T23:26:17.788Z,91.83
2022-12-23T23:28:44.625Z,91.59
2022-12-23T23:33:58.299Z,91.54
2022-12-23T23:36:25.313Z,91.01
2022-12-23T23:38:52.171Z,90.89
2022-12-23T23:41:22.800Z,91.18
2022-12-23T23:43:50.198Z,91.56
2022-12-23T23:46:17.011Z,92.07
2022-12-23T23:48:43.771Z,92.08
2022-12-23T23:51:10.537Z,92.03
2022-12-23T23:53:37.197Z,91.40
2022-12-23T23:56:08.349Z,91.81
2022-12-23T23:58:36.493Z,91.94
